This demonstration page uses our WeatherBlox Daily Observations layout. Learn more.

Left ArrowRight Arrow

41.86663, -103.66717

Hourly Observations for March 4, 2021

Temp ( °F °C ) Dew Point ( °F °C ) Humidity (%) Winds ( mph kmh ) Pressure ( in mb ) Visibility ( mi km ) Precip ( " mm )
12:53 am 00:53 Clear 34 1.1 18 -7.8 52 52 E 7 11 30 1016 10 16.0934 0 0
1:53 am 01:53 Clear 34 1.1 19 -7.2 54 54 ENE 9 15 30 1016 10 16.0934 0 0
2:53 am 02:53 Clear 33 0.6 19 -7.2 56 56 E 8 13 29.98 1015 10 16.0934 0 0
3:53 am 03:53 Clear 27 -2.8 17 -8.3 66 66 Calm 29.99 1016 10 16.0934 0 0
4:53 am 04:53 Clear 26 -3.3 17 -8.3 69 69 Calm 30 1016 10 16.0934 0 0
5:53 am 05:53 Clear 24 -4.4 17 -8.3 75 75 Calm 30.05 1018 10 16.0934 0 0
6:53 am 06:53 Sunny 26 -3.3 18 -7.8 71 71 Calm 30.06 1018 10 16.0934 0 0
7:53 am 07:53 Sunny 32 0 22 -5.6 66 66 SSW 5 7 30.06 1018 10 16.0934 0 0
8:53 am 08:53 Sunny 41 5 22 -5.6 47 47 ESE 6 9 30.04 1017 10 16.0934 0 0
9:53 am 09:53 Sunny 48 8.9 22 -5.6 36 36 ESE 6 9 30.02 1017 10 16.0934 0 0
10:53 am 10:53 Sunny 55 12.8 21 -6.1 26 26 E 8 13 30 1016 10 16.0934 0 0
11:53 am 11:53 Sunny 59 15 16 -8.9 18 18 E 12 19 30.01 1016 10 16.0934 0 0
12:53 pm 12:53 Sunny 59 15 15 -9.4 18 18 SE 12 19 29.99 1016 10 16.0934 0 0
1:53 pm 13:53 Sunny 59 15 17 -8.3 19 19 ESE 10 17 29.99 1016 10 16.0934 0 0
2:53 pm 14:53 Sunny 63 17.2 16 -8.9 16 16 SE 13 20 30 1016 10 16.0934 0 0
3:53 pm 15:53 Sunny 62 16.7 15 -9.4 16 16 ESE 14 22 30.03 1017 10 16.0934 0 0
4:53 pm 16:53 Sunny 61 16.1 17 -8.3 18 18 ESE 12 19 30.05 1018 10 16.0934 0 0
5:53 pm 17:53 Clear 54 12.2 18 -7.8 24 24 SSE 8 13 30.13 1020 10 16.0934 0 0
6:53 pm 18:53 Clear 49 9.4 22 -5.6 35 35 SSW 5 7 30.16 1021 10 16.0934 0 0
7:53 pm 19:53 Clear 43 6.1 24 -4.4 47 47 N 6 9 30.18 1022 10 16.0934 0 0
8:53 pm 20:53 Clear 42 5.6 23 -5 47 47 WNW 6 9 30.18 1022 10 16.0934 0 0
9:53 pm 21:53 Clear 40 4.4 23 -5 51 51 WNW 6 9 30.18 1022 10 16.0934 0 0
10:53 pm 22:53 Clear 37 2.8 22 -5.6 54 54 NNW 7 11 30.19 1022 10 16.0934 0 0
11:53 pm 23:53 Clear 35 1.7 22 -5.6 59 59 NW 9 15 30.19 1023 10 16.0934 0 0

Powered by AerisWeather